createdAt,value
2018-01-12T00:01:04.277Z,101080
2018-01-12T00:03:32.609Z,101079
2018-01-12T00:06:00.919Z,101085
2018-01-12T00:08:29.170Z,101076
2018-01-12T00:10:58.197Z,101077
2018-01-12T00:13:26.538Z,101079
2018-01-12T00:15:54.800Z,101084
2018-01-12T00:18:23.046Z,101091
2018-01-12T00:20:51.337Z,101087
2018-01-12T00:23:19.617Z,101087
2018-01-12T00:25:48.769Z,101089
2018-01-12T00:28:17.067Z,101102
2018-01-12T00:30:45.491Z,101096
2018-01-12T00:33:13.763Z,101103
2018-01-12T00:35:42.072Z,101096
2018-01-12T00:38:10.419Z,101105
2018-01-12T00:40:38.835Z,101103
2018-01-12T00:43:07.127Z,101117
2018-01-12T00:45:36.234Z,101107
2018-01-12T00:48:04.500Z,101127
2018-01-12T00:50:32.949Z,101114
2018-01-12T00:53:02.043Z,101123
2018-01-12T00:55:30.309Z,101119
2018-01-12T00:57:58.608Z,101125
2018-01-12T01:00:26.886Z,101123
2018-01-12T01:02:55.158Z,101120
2018-01-12T01:05:23.442Z,101129
2018-01-12T01:07:51.688Z,101120
2018-01-12T01:10:19.915Z,101123
2018-01-12T01:12:48.194Z,101130
2018-01-12T01:15:16.432Z,101130
2018-01-12T01:17:44.689Z,101131
2018-01-12T01:20:13.036Z,101127
2018-01-12T01:22:42.142Z,101137
2018-01-12T01:25:10.427Z,101142
2018-01-12T01:27:38.731Z,101133
2018-01-12T01:30:07.079Z,101138
2018-01-12T01:32:35.341Z,101147
2018-01-12T01:35:03.650Z,101154
2018-01-12T01:37:31.969Z,101152
2018-01-12T01:40:00.217Z,101159
2018-01-12T01:42:28.600Z,101159
2018-01-12T01:44:56.874Z,101168
2018-01-12T01:47:25.164Z,101164
2018-01-12T01:49:53.463Z,101178
2018-01-12T01:52:22.488Z,101182
2018-01-12T01:54:51.014Z,101182
2018-01-12T01:57:20.130Z,101184
2018-01-12T01:59:49.196Z,101183
2018-01-12T02:02:17.500Z,101183
2018-01-12T02:04:45.829Z,101188
2018-01-12T02:07:14.121Z,101189
2018-01-12T02:09:42.361Z,101185
2018-01-12T02:12:10.640Z,101180
2018-01-12T02:14:38.901Z,101188
2018-01-12T02:17:07.200Z,101182
2018-01-12T02:19:35.600Z,101192
2018-01-12T02:22:03.855Z,101198
2018-01-12T02:24:32.156Z,101187
2018-01-12T02:27:00.430Z,101196
2018-01-12T02:29:28.728Z,101202
2018-01-12T02:31:56.993Z,101197
2018-01-12T02:34:25.344Z,101197
2018-01-12T02:36:53.630Z,101196
2018-01-12T02:39:21.880Z,101194
2018-01-12T02:41:50.174Z,101197
2018-01-12T02:44:18.513Z,101196
2018-01-12T02:46:47.540Z,101206
2018-01-12T02:49:15.831Z,101203
2018-01-12T02:51:44.185Z,101205
2018-01-12T02:54:12.483Z,101207
2018-01-12T02:56:40.804Z,101212
2018-01-12T02:59:09.089Z,101212
2018-01-12T03:01:38.162Z,101215
2018-01-12T03:04:07.231Z,101214
2018-01-12T03:06:35.478Z,101217
2018-01-12T03:09:03.761Z,101213
2018-01-12T03:11:32.080Z,101221
2018-01-12T03:14:01.125Z,101224
2018-01-12T03:16:29.432Z,101224
2018-01-12T03:18:57.804Z,101222
2018-01-12T03:21:26.026Z,101230
2018-01-12T03:23:55.064Z,101222
2018-01-12T03:26:23.434Z,101224
2018-01-12T03:28:51.709Z,101235
2018-01-12T03:31:19.980Z,101224
2018-01-12T03:33:48.325Z,101232
2018-01-12T03:36:17.345Z,101233
2018-01-12T03:38:45.631Z,101241
2018-01-12T03:41:14.832Z,101236
2018-01-12T03:43:43.100Z,101248
2018-01-12T03:46:11.382Z,101233
2018-01-12T03:48:39.661Z,101239
2018-01-12T03:51:07.897Z,101256
2018-01-12T03:53:36.895Z,101254
2018-01-12T03:56:05.992Z,101250
2018-01-12T03:58:35.020Z,101260
2018-01-12T04:01:03.270Z,101249
2018-01-12T04:03:31.678Z,101258
2018-01-12T04:05:59.917Z,101248
2018-01-12T04:08:28.952Z,101263
2018-01-12T04:10:57.226Z,101257
2018-01-12T04:13:25.530Z,101265
2018-01-12T04:15:53.777Z,101268
2018-01-12T04:18:22.061Z,101264
2018-01-12T04:20:50.294Z,101273
2018-01-12T04:23:18.567Z,101283
2018-01-12T04:25:46.881Z,101276
2018-01-12T04:28:15.156Z,101280
2018-01-12T04:30:43.447Z,101271
2018-01-12T04:33:11.786Z,101274
2018-01-12T04:35:40.029Z,101270
2018-01-12T04:38:09.050Z,101284
2018-01-12T04:40:37.330Z,101283
2018-01-12T04:43:05.641Z,101285
2018-01-12T04:45:33.904Z,101286
2018-01-12T04:48:02.207Z,101288
2018-01-12T04:50:30.482Z,101295
2018-01-12T04:52:58.752Z,101283
2018-01-12T04:55:27.144Z,101291
2018-01-12T04:57:55.430Z,101289
2018-01-12T05:00:23.715Z,101299
2018-01-12T05:02:52.055Z,101303
2018-01-12T05:05:20.292Z,101310
2018-01-12T05:07:48.602Z,101311
2018-01-12T05:10:17.722Z,101308
2018-01-12T05:12:45.965Z,101305
2018-01-12T05:15:14.237Z,101315
2018-01-12T05:17:42.615Z,101313
2018-01-12T05:20:10.886Z,101309
2018-01-12T05:22:39.184Z,101312
2018-01-12T05:25:07.586Z,101320
2018-01-12T05:27:36.633Z,101320
2018-01-12T05:30:04.894Z,101323
2018-01-12T05:32:33.278Z,101317
2018-01-12T05:35:01.530Z,101323
2018-01-12T05:37:29.879Z,101328
2018-01-12T05:39:58.253Z,101334
2018-01-12T05:42:26.547Z,101337
2018-01-12T05:44:55.182Z,101342
2018-01-12T05:47:23.684Z,101342
2018-01-12T05:49:51.990Z,101343
2018-01-12T05:52:21.020Z,101347
2018-01-12T05:54:50.193Z,101352
2018-01-12T05:57:18.471Z,101348
2018-01-12T05:59:46.766Z,101359
2018-01-12T06:02:32.987Z,101356
2018-01-12T06:05:19.106Z,101361
2018-01-12T06:07:47.433Z,101355
2018-01-12T06:10:15.702Z,101364
2018-01-12T06:12:43.975Z,101359
2018-01-12T06:15:12.293Z,101358
2018-01-12T06:17:40.561Z,101362
2018-01-12T06:20:08.847Z,101367
2018-01-12T06:22:37.142Z,101382
2018-01-12T06:25:05.383Z,101368
2018-01-12T06:27:33.769Z,101369
2018-01-12T06:30:02.216Z,101376
2018-01-12T06:32:30.520Z,101373
2018-01-12T06:34:58.801Z,101380
2018-01-12T06:37:27.291Z,101379
2018-01-12T06:39:55.579Z,101382
2018-01-12T06:42:23.900Z,101392
2018-01-12T06:44:52.298Z,101406
2018-01-12T06:47:20.558Z,101409
2018-01-12T06:49:48.950Z,101411
2018-01-12T06:52:17.294Z,101412
2018-01-12T06:54:45.550Z,101414
2018-01-12T06:57:13.788Z,101421
2018-01-12T06:59:42.102Z,101429
2018-01-12T07:02:10.432Z,101433
2018-01-12T07:04:38.776Z,101434
2018-01-12T07:07:07.018Z,101444
2018-01-12T07:09:35.341Z,101443
2018-01-12T07:12:03.827Z,101443
2018-01-12T07:14:32.354Z,101448
2018-01-12T07:17:00.649Z,101448
2018-01-12T07:19:29.044Z,101460
2018-01-12T07:22:15.807Z,101447
2018-01-12T07:24:44.329Z,101455
2018-01-12T07:27:13.357Z,101453
2018-01-12T07:29:41.728Z,101455
2018-01-12T07:32:10.092Z,101464
2018-01-12T07:34:38.421Z,101461
2018-01-12T07:37:06.777Z,101457
2018-01-12T07:39:35.350Z,101467
2018-01-12T07:42:03.751Z,101465
2018-01-12T07:44:32.034Z,101464
2018-01-12T07:47:00.486Z,101466
2018-01-12T07:49:28.751Z,101466
2018-01-12T07:51:57.017Z,101462
2018-01-12T07:54:25.515Z,101466
2018-01-12T07:56:53.894Z,101467
2018-01-12T07:59:22.279Z,101470
2018-01-12T08:01:56.191Z,101478
2018-01-12T08:04:24.461Z,101475
2018-01-12T08:06:52.916Z,101483
2018-01-12T08:09:21.181Z,101491
2018-01-12T08:11:49.807Z,101490
2018-01-12T08:14:18.063Z,101491
2018-01-12T08:16:47.185Z,101490
2018-01-12T08:19:15.439Z,101497
2018-01-12T08:21:43.764Z,101498
2018-01-12T08:24:12.931Z,101503
2018-01-12T08:26:41.298Z,101506
2018-01-12T08:29:09.549Z,101506
2018-01-12T08:31:37.849Z,101503
2018-01-12T08:34:06.359Z,101510
2018-01-12T08:36:34.619Z,101514
2018-01-12T08:39:02.868Z,101529
2018-01-12T08:41:31.334Z,101533
2018-01-12T08:43:59.657Z,101536
2018-01-12T08:46:27.905Z,101540
2018-01-12T08:48:56.201Z,101542
2018-01-12T08:51:24.495Z,101546
2018-01-12T08:53:52.751Z,101547
2018-01-12T08:56:21.052Z,101549
2018-01-12T08:58:49.365Z,101550
2018-01-12T09:01:17.710Z,101554
2018-01-12T09:03:46.808Z,101563
2018-01-12T09:06:15.115Z,101566
2018-01-12T09:08:43.466Z,101575
2018-01-12T09:11:11.750Z,101572
2018-01-12T09:13:53.912Z,101564
2018-01-12T09:16:28.346Z,101575
2018-01-12T09:22:10.951Z,101579
2018-01-12T09:24:45.878Z,101575
2018-01-12T09:27:14.226Z,101581
2018-01-12T09:29:42.567Z,101582
2018-01-12T09:32:15.405Z,101579
2018-01-12T09:35:06.164Z,101579
2018-01-12T09:37:41.197Z,101583
2018-01-12T09:54:00.328Z,101594
2018-01-12T09:56:28.629Z,101595
2018-01-12T09:59:02.650Z,101594
2018-01-12T10:01:40.804Z,101600
2018-01-12T10:04:09.937Z,101603
2018-01-12T10:06:38.196Z,101607
2018-01-12T10:09:06.556Z,101609
2018-01-12T10:11:34.869Z,101606
2018-01-12T10:14:03.107Z,101607
2018-01-12T10:16:31.340Z,101615
2018-01-12T10:19:00.395Z,101613
2018-01-12T10:21:41.591Z,101612
2018-01-12T10:24:09.916Z,101613
2018-01-12T10:26:39.392Z,101615
2018-01-12T10:29:08.405Z,101625
2018-01-12T10:31:51.689Z,101614
2018-01-12T10:34:44.706Z,101626
2018-01-12T10:37:13.212Z,101629
2018-01-12T10:40:01.403Z,101627
2018-01-12T10:42:29.735Z,101624
2018-01-12T10:44:58.847Z,101621
2018-01-12T10:47:27.118Z,101632
2018-01-12T10:50:17.945Z,101631
2018-01-12T10:52:49.873Z,101622
2018-01-12T10:55:18.169Z,101632
2018-01-12T10:57:46.393Z,101636
2018-01-12T11:00:33.105Z,101641
2018-01-12T11:03:01.420Z,101638
2018-01-12T11:05:29.692Z,101635
2018-01-12T11:07:58.027Z,101640
2018-01-12T11:10:26.249Z,101634
2018-01-12T11:12:54.576Z,101637
2018-01-12T11:15:22.929Z,101631
2018-01-12T11:17:51.991Z,101634
2018-01-12T11:20:20.569Z,101639
2018-01-12T11:22:48.977Z,101630
2018-01-12T11:25:18.024Z,101642
2018-01-12T11:27:47.231Z,101636
2018-01-12T11:30:15.540Z,101647
2018-01-12T11:32:45.666Z,101640
2018-01-12T11:35:13.936Z,101640
2018-01-12T11:37:42.982Z,101650
2018-01-12T11:40:11.222Z,101636
2018-01-12T11:42:40.077Z,101641
2018-01-12T11:45:08.378Z,101642
2018-01-12T11:47:38.913Z,101646
2018-01-12T11:50:07.270Z,101644
2018-01-12T11:52:36.152Z,101654
2018-01-12T11:55:04.430Z,101646
2018-01-12T11:57:32.688Z,101643
2018-01-12T12:00:01.030Z,101643
2018-01-12T12:02:29.278Z,101641
2018-01-12T12:04:57.554Z,101636
2018-01-12T12:07:25.873Z,101646
2018-01-12T12:09:54.181Z,101638
2018-01-12T12:12:22.503Z,101638
2018-01-12T12:14:50.813Z,101630
2018-01-12T12:17:19.051Z,101627
2018-01-12T12:19:47.269Z,101627
2018-01-12T12:22:15.545Z,101629
2018-01-12T12:24:43.805Z,101637
2018-01-12T12:27:12.087Z,101639
2018-01-12T12:29:40.438Z,101637
2018-01-12T12:32:08.706Z,101633
2018-01-12T12:34:37.097Z,101649
2018-01-12T12:37:05.545Z,101643
2018-01-12T12:39:34.600Z,101642
2018-01-12T12:42:02.860Z,101638
2018-01-12T12:44:31.120Z,101641
2018-01-12T12:47:00.128Z,101645
2018-01-12T12:49:28.543Z,101647
2018-01-12T12:51:56.829Z,101647
2018-01-12T12:54:25.077Z,101644
2018-01-12T12:56:53.345Z,101641
2018-01-12T12:59:21.984Z,101652
2018-01-12T13:01:50.284Z,101653
2018-01-12T13:04:18.632Z,101643
2018-01-12T13:06:47.211Z,101652
2018-01-12T13:09:16.236Z,101649
2018-01-12T13:11:44.557Z,101641
2018-01-12T13:14:13.677Z,101648
2018-01-12T13:16:41.967Z,101655
2018-01-12T13:19:10.291Z,101655
2018-01-12T13:21:38.585Z,101653
2018-01-12T13:24:06.856Z,101660
2018-01-12T13:26:35.136Z,101660
2018-01-12T13:29:03.433Z,101669
2018-01-12T13:31:31.711Z,101667
2018-01-12T13:34:00.784Z,101668
2018-01-12T13:36:29.140Z,101672
2018-01-12T13:38:57.443Z,101682
2018-01-12T13:41:26.509Z,101678
2018-01-12T13:43:55.225Z,101676
2018-01-12T13:46:24.366Z,101678
2018-01-12T13:48:52.618Z,101676
2018-01-12T13:51:20.973Z,101682
2018-01-12T13:53:49.208Z,101690
2018-01-12T13:56:17.507Z,101689
2018-01-12T13:58:45.817Z,101691
2018-01-12T14:01:14.837Z,101686
2018-01-12T14:03:43.112Z,101696
2018-01-12T14:06:11.415Z,101705
2018-01-12T14:08:39.672Z,101698
2018-01-12T14:11:07.978Z,101702
2018-01-12T14:13:37.146Z,101708
2018-01-12T14:16:05.413Z,101712
2018-01-12T14:18:33.666Z,101718
2018-01-12T14:21:02.108Z,101710
2018-01-12T14:23:30.399Z,101712
2018-01-12T14:25:58.644Z,101715
2018-01-12T14:28:26.923Z,101714
2018-01-12T14:30:55.168Z,101725
2018-01-12T14:33:23.389Z,101719
2018-01-12T14:35:51.674Z,101733
2018-01-12T14:38:19.901Z,101728
2018-01-12T14:40:48.140Z,101733
2018-01-12T14:43:18.917Z,101736
2018-01-12T14:45:47.261Z,101736
2018-01-12T14:48:15.515Z,101741
2018-01-12T14:50:43.812Z,101740
2018-01-12T14:53:12.063Z,101744
2018-01-12T14:55:40.328Z,101747
2018-01-12T14:58:09.850Z,101755
2018-01-12T15:00:40.965Z,101750
2018-01-12T15:03:09.214Z,101767
2018-01-12T15:05:37.498Z,101759
2018-01-12T15:08:05.732Z,101765
2018-01-12T15:10:34.076Z,101760
2018-01-12T15:13:02.451Z,101759
2018-01-12T15:15:30.711Z,101767
2018-01-12T15:17:59.025Z,101773
2018-01-12T15:20:28.273Z,101786
2018-01-12T15:22:56.540Z,101783
2018-01-12T15:25:24.918Z,101778
2018-01-12T15:27:53.215Z,101807
2018-01-12T15:30:21.456Z,101796
2018-01-12T15:32:49.690Z,101796
2018-01-12T15:35:18.154Z,101794
2018-01-12T15:37:46.408Z,101799
2018-01-12T15:40:14.631Z,101797
2018-01-12T15:42:43.727Z,101802
2018-01-12T15:45:12.008Z,101797
2018-01-12T15:47:41.029Z,101799
2018-01-12T15:50:10.080Z,101807
2018-01-12T15:52:38.357Z,101805
2018-01-12T15:55:07.635Z,101808
2018-01-12T15:57:35.963Z,101808
2018-01-12T16:00:04.169Z,101811
2018-01-12T16:02:32.501Z,101806
2018-01-12T16:05:02.212Z,101806
2018-01-12T16:07:31.253Z,101810
2018-01-12T16:09:59.503Z,101809
2018-01-12T16:12:28.182Z,101820
2018-01-12T16:14:57.224Z,101818
2018-01-12T16:17:25.492Z,101822
2018-01-12T16:19:53.792Z,101820
2018-01-12T16:22:22.053Z,101818
2018-01-12T16:24:50.319Z,101815
2018-01-12T16:27:18.628Z,101814
2018-01-12T16:29:46.910Z,101815
2018-01-12T16:32:15.936Z,101824
2018-01-12T16:34:44.262Z,101825
2018-01-12T16:37:12.541Z,101832
2018-01-12T16:39:40.814Z,101826
2018-01-12T16:42:09.100Z,101835
2018-01-12T16:44:37.345Z,101837
2018-01-12T16:47:05.638Z,101849
2018-01-12T16:49:33.921Z,101849
2018-01-12T16:52:02.256Z,101837
2018-01-12T16:54:30.541Z,101843
2018-01-12T16:56:58.858Z,101847
2018-01-12T16:59:27.105Z,101854
2018-01-12T17:01:56.270Z,101858
2018-01-12T17:04:24.565Z,101858
2018-01-12T17:06:52.847Z,101859
2018-01-12T17:09:21.109Z,101859
2018-01-12T17:11:49.632Z,101860
2018-01-12T17:14:18.152Z,101862
2018-01-12T17:16:46.452Z,101875
2018-01-12T17:19:15.444Z,101864
2018-01-12T17:21:43.692Z,101862
2018-01-12T17:24:11.987Z,101875
2018-01-12T17:26:41.199Z,101871
2018-01-12T17:29:09.451Z,101876
2018-01-12T17:31:37.705Z,101877
2018-01-12T17:34:06.785Z,101876
2018-01-12T17:36:35.031Z,101890
2018-01-12T17:39:03.405Z,101889
2018-01-12T17:41:32.904Z,101887
2018-01-12T17:44:01.147Z,101891
2018-01-12T17:46:29.388Z,101892
2018-01-12T17:48:57.749Z,101888
2018-01-12T17:51:26.023Z,101892
2018-01-12T17:53:54.298Z,101896
2018-01-12T17:56:22.562Z,101896
2018-01-12T17:58:50.808Z,101897
2018-01-12T18:01:19.044Z,101903
2018-01-12T18:03:47.319Z,101901
2018-01-12T18:06:15.568Z,101907
2018-01-12T18:08:43.821Z,101901
2018-01-12T18:11:12.119Z,101903
2018-01-12T18:13:40.351Z,101907
2018-01-12T18:16:08.761Z,101919
2018-01-12T18:18:37.107Z,101917
2018-01-12T18:21:05.335Z,101909
2018-01-12T18:23:33.572Z,101916
2018-01-12T18:26:01.858Z,101915
2018-01-12T18:28:30.113Z,101925
2018-01-12T18:30:58.345Z,101922
2018-01-12T18:33:26.646Z,101922
2018-01-12T18:35:55.664Z,101929
2018-01-12T18:38:23.917Z,101931
2018-01-12T18:40:53.026Z,101930
2018-01-12T18:43:21.375Z,101935
2018-01-12T18:45:49.623Z,101929
2018-01-12T18:48:17.902Z,101939
2018-01-12T18:50:46.251Z,101942
2018-01-12T18:53:14.559Z,101938
2018-01-12T18:55:43.296Z,101941
2018-01-12T18:58:11.740Z,101939
2018-01-12T19:00:41.009Z,101947
2018-01-12T19:03:09.303Z,101946
2018-01-12T19:05:37.581Z,101948
2018-01-12T19:08:06.524Z,101956
2018-01-12T19:10:34.901Z,101953
2018-01-12T19:13:03.148Z,101951
2018-01-12T19:15:32.147Z,101963
2018-01-12T19:18:01.286Z,101960
2018-01-12T19:20:29.534Z,101966
2018-01-12T19:22:57.874Z,101972
2018-01-12T19:25:27.218Z,101965
2018-01-12T19:27:55.454Z,101972
2018-01-12T19:30:24.242Z,101977
2018-01-12T19:32:52.625Z,101978
2018-01-12T19:35:21.193Z,101981
2018-01-12T19:37:49.414Z,101980
2018-01-12T19:40:20.071Z,101978
2018-01-12T19:42:48.341Z,101989
2018-01-12T19:45:18.201Z,101989
2018-01-12T19:47:46.447Z,101988
2018-01-12T19:50:14.906Z,101983
2018-01-12T19:52:43.194Z,101988
2018-01-12T19:55:12.222Z,101986
2018-01-12T19:57:41.232Z,101995
2018-01-12T20:00:10.290Z,101996
2018-01-12T20:02:38.548Z,101997
2018-01-12T20:05:06.823Z,102001
2018-01-12T20:07:35.148Z,101997
2018-01-12T20:10:04.161Z,102011
2018-01-12T20:12:32.410Z,102001
2018-01-12T20:15:01.496Z,102012
2018-01-12T20:17:29.742Z,102010
2018-01-12T20:19:58.116Z,101999
2018-01-12T20:22:26.431Z,102005
2018-01-12T20:24:55.462Z,102006
2018-01-12T20:27:23.694Z,102006
2018-01-12T20:29:51.981Z,102015
2018-01-12T20:32:20.211Z,102010
2018-01-12T20:34:48.490Z,102006
2018-01-12T20:37:16.751Z,102014
2018-01-12T20:39:44.996Z,102008
2018-01-12T20:42:14.020Z,102002
2018-01-12T20:44:42.336Z,102008
2018-01-12T20:47:10.574Z,102004
2018-01-12T20:49:38.814Z,102014
2018-01-12T20:52:07.901Z,102015
2018-01-12T20:54:36.309Z,102017
2018-01-12T20:57:04.557Z,102012
2018-01-12T20:59:33.636Z,102011
2018-01-12T21:02:01.866Z,102011
2018-01-12T21:04:30.096Z,102013
2018-01-12T21:06:58.417Z,102022
2018-01-12T21:09:26.663Z,102014
2018-01-12T21:11:55.679Z,102018
2018-01-12T21:14:23.983Z,102011
2018-01-12T21:16:52.258Z,102022
2018-01-12T21:19:20.572Z,102012
2018-01-12T21:21:48.885Z,102024
2018-01-12T21:24:17.116Z,102021
2018-01-12T21:26:45.418Z,102024
2018-01-12T21:29:14.444Z,102019
2018-01-12T21:31:42.697Z,102017
2018-01-12T21:34:11.005Z,102022
2018-01-12T21:36:39.323Z,102036
2018-01-12T21:39:07.622Z,102031
2018-01-12T21:41:35.887Z,102029
2018-01-12T21:44:04.326Z,102029
2018-01-12T21:46:32.604Z,102022
2018-01-12T21:49:01.001Z,102029
2018-01-12T21:51:30.293Z,102032
2018-01-12T21:53:58.571Z,102035
2018-01-12T21:56:26.802Z,102044
2018-01-12T21:58:55.133Z,102040
2018-01-12T22:01:24.523Z,102046
2018-01-12T22:03:52.728Z,102052
2018-01-12T22:06:21.907Z,102046
2018-01-12T22:08:50.934Z,102050
2018-01-12T22:11:19.193Z,102056
2018-01-12T22:13:48.368Z,102051
2018-01-12T22:16:16.606Z,102070
2018-01-12T22:18:44.839Z,102065
2018-01-12T22:21:13.884Z,102055
2018-01-12T22:23:42.200Z,102054
2018-01-12T22:26:11.215Z,102064
2018-01-12T22:28:39.470Z,102070
2018-01-12T22:31:08.548Z,102065
2018-01-12T22:33:36.811Z,102080
2018-01-12T22:36:05.142Z,102068
2018-01-12T22:38:33.361Z,102075
2018-01-12T22:41:01.616Z,102058
2018-01-12T22:43:29.908Z,102060
2018-01-12T22:45:58.146Z,102060
2018-01-12T22:48:26.466Z,102051
2018-01-12T22:50:54.698Z,102054
2018-01-12T22:53:22.934Z,102050
2018-01-12T22:55:51.272Z,102054
2018-01-12T22:58:19.515Z,102057
2018-01-12T23:00:47.753Z,102052
2018-01-12T23:03:16.029Z,102063
2018-01-12T23:05:44.250Z,102055
2018-01-12T23:08:12.481Z,102059
2018-01-12T23:10:41.545Z,102059
2018-01-12T23:13:09.796Z,102064
2018-01-12T23:15:38.040Z,102064
2018-01-12T23:18:07.085Z,102063
2018-01-12T23:20:35.353Z,102063
2018-01-12T23:23:03.648Z,102064
2018-01-12T23:25:31.935Z,102070
2018-01-12T23:28:00.196Z,102067
2018-01-12T23:30:28.424Z,102068
2018-01-12T23:32:57.666Z,102074
2018-01-12T23:35:25.923Z,102074
2018-01-12T23:37:54.147Z,102067
2018-01-12T23:40:22.430Z,102073
2018-01-12T23:42:51.493Z,102070
2018-01-12T23:45:19.743Z,102080
2018-01-12T23:47:48.007Z,102074
2018-01-12T23:50:16.282Z,102076
2018-01-12T23:52:45.367Z,102080
2018-01-12T23:55:13.673Z,102088
2018-01-12T23:57:41.909Z,102090
